Time;durP1;ratioP1;P1;durP2;ratioP2;P2;SDS_P1;SDS_P2;PMS_P1;PMS_P2;Temp;Humidity;BMP_temperature;BMP_pressure;BME280_temperature;BME280_humidity;BME280_pressure;Samples;Min_cycle;Max_cycle;Signal;HPM_P1;HPM_P2
2022/06/09 00:04:13;;;;;;;0.75;0.55;;;;;;;16.94;69.28;100863.13;5091100;27;20414;-73
2022/06/09 00:06:44;;;;;;;0.10;0.10;;;;;;;16.95;68.95;100865.72;5086689;28;20066;-74
2022/06/09 00:09:11;;;;;;;1.02;1.02;;;;;;;16.89;69.42;100875.81;5087414;28;20056;-73
2022/06/09 00:11:42;;;;;;;0.10;0.10;;;;;;;16.86;69.75;100881.28;5087420;28;20031;-73
2022/06/09 00:14:09;;;;;;;0.10;0.10;;;;;;;16.81;70.63;100894.91;5087379;28;20055;-74
2022/06/09 00:16:36;;;;;;;1.45;1.35;;;;;;;16.83;69.84;100890.31;5086014;28;20107;-74
2022/06/09 00:19:05;;;;;;;0.10;0.10;;;;;;;16.90;68.86;100893.63;5077505;28;20024;-73
2022/06/09 00:21:33;;;;;;;0.10;0.10;;;;;;;16.89;69.03;100894.53;5082309;28;20037;-74
2022/06/09 00:23:59;;;;;;;0.10;0.10;;;;;;;16.92;69.24;100881.94;5079803;28;20051;-73
2022/06/09 00:26:25;;;;;;;0.10;0.10;;;;;;;16.92;69.31;100894.44;5086591;28;20036;-74
2022/06/09 00:28:52;;;;;;;0.10;0.10;;;;;;;16.88;69.68;100896.34;5073394;28;20114;-73
2022/06/09 00:31:18;;;;;;;0.40;0.40;;;;;;;16.92;69.12;100891.75;5079757;28;20115;-74
2022/06/09 00:33:44;;;;;;;0.00;0.00;;;;;;;16.94;69.28;100896.09;5078946;28;20058;-74
2022/06/09 00:36:10;;;;;;;0.70;0.52;;;;;;;16.94;68.96;100897.91;5085463;28;20093;-75
2022/06/09 00:38:36;;;;;;;0.10;0.10;;;;;;;16.98;68.85;100908.41;5079962;28;20035;-74
2022/06/09 00:41:03;;;;;;;0.10;0.10;;;;;;;16.96;69.21;100909.44;5083270;28;20040;-74
2022/06/09 00:43:31;;;;;;;0.10;0.10;;;;;;;17.03;68.92;100908.19;5087708;28;20036;-74
2022/06/09 00:46:06;;;;;;;0.20;0.20;;;;;;;17.01;69.22;100918.09;5085511;28;20147;-74
2022/06/09 00:48:58;;;;;;;0.52;0.52;;;;;;;17.07;68.92;100925.84;5084782;28;20450;-74
2022/06/09 00:51:40;;;;;;;0.10;0.10;;;;;;;17.12;68.34;100920.25;5084083;28;20115;-74
2022/06/09 00:54:12;;;;;;;0.10;0.10;;;;;;;17.09;68.65;100918.59;5086731;28;20028;-74
2022/06/09 00:56:43;;;;;;;0.10;0.10;;;;;;;17.13;68.59;100917.53;5085446;28;20501;-73
2022/06/09 00:59:15;;;;;;;0.10;0.10;;;;;;;17.10;69.01;100919.50;5077993;28;20037;-73
2022/06/09 01:01:42;;;;;;;0.13;0.13;;;;;;;17.10;68.49;100922.16;5086113;28;20030;-73
2022/06/09 01:04:11;;;;;;;0.10;0.10;;;;;;;16.98;68.84;100918.22;5090889;28;20058;-74
2022/06/09 01:07:02;;;;;;;0.10;0.10;;;;;;;17.10;68.38;100923.03;5086493;28;20024;-73
2022/06/09 01:09:30;;;;;;;0.10;0.10;;;;;;;17.03;68.38;100921.56;5082870;28;20201;-73
2022/06/09 01:11:58;;;;;;;0.13;0.13;;;;;;;17.04;68.20;100922.44;5097606;28;20448;-73
2022/06/09 01:14:28;;;;;;;0.10;0.10;;;;;;;16.98;68.02;100923.59;5093953;28;20110;-73
2022/06/09 01:17:19;;;;;;;0.10;0.10;;;;;;;17.05;67.97;100924.19;5070692;28;20502;-73
2022/06/09 01:23:02;;;;;;;0.20;0.20;;;;;;;17.02;67.84;100925.16;5047117;28;20962;-73
2022/06/09 01:26:08;;;;;;;0.10;0.10;;;;;;;17.03;67.63;100936.78;5049461;28;20098;-73
2022/06/09 01:29:00;;;;;;;0.10;0.10;;;;;;;16.97;67.28;100933.44;5041145;28;20053;-74
2022/06/09 01:31:40;;;;;;;0.10;0.10;;;;;;;16.94;67.51;100940.72;5024873;28;20057;-73
2022/06/09 01:37:11;;;;;;;0.10;0.10;;;;;;;16.87;67.44;100936.56;5106064;27;21098;-74
2022/06/09 01:39:57;;;;;;;0.10;0.10;;;;;;;16.89;67.14;100940.91;5097554;28;20117;-74
2022/06/09 01:45:29;;;;;;;0.63;0.63;;;;;;;16.79;67.35;100945.78;5107225;27;21016;-73
2022/06/09 01:48:13;;;;;;;;;;;;;;;16.92;66.94;100950.63;5100773;28;20039;-73
2022/06/09 01:53:37;;;;;;;0.10;0.10;;;;;;;16.73;67.39;100946.06;5057897;28;20384;-74
2022/06/09 01:56:12;;;;;;;0.10;0.10;;;;;;;16.73;67.55;100970.13;5065480;28;20694;-74
2022/06/09 01:58:45;;;;;;;0.10;0.10;;;;;;;16.65;67.92;100969.63;5052448;28;20513;-74
2022/06/09 02:01:13;;;;;;;0.10;0.10;;;;;;;16.65;67.72;100964.28;5056997;28;20101;-74
2022/06/09 02:03:44;;;;;;;0.10;0.10;;;;;;;16.71;67.43;100964.00;5065497;28;20025;-74
2022/06/09 02:06:11;;;;;;;0.10;0.10;;;;;;;16.63;67.47;100966.13;5059575;28;20410;-75
2022/06/09 02:08:39;;;;;;;0.10;0.10;;;;;;;16.66;67.48;100969.53;5057618;28;20040;-74
2022/06/09 02:14:30;;;;;;;0.30;0.30;;;;;;;16.68;67.44;100984.66;5067643;28;20087;-74
2022/06/09 02:16:57;;;;;;;0.15;0.15;;;;;;;16.73;67.46;100977.31;5058606;28;20310;-75
2022/06/09 02:19:24;;;;;;;0.10;0.10;;;;;;;16.75;67.75;100980.78;5060192;28;20040;-74
2022/06/09 02:21:51;;;;;;;0.10;0.10;;;;;;;16.82;67.52;100980.44;5062993;28;20526;-74
2022/06/09 02:24:17;;;;;;;0.10;0.10;;;;;;;16.76;67.38;100983.41;5059409;28;20032;-74
2022/06/09 02:26:43;;;;;;;0.10;0.10;;;;;;;16.85;67.37;100989.25;5061107;28;20029;-73
2022/06/09 02:29:09;;;;;;;0.17;0.17;;;;;;;16.94;67.18;100980.88;5051578;28;20036;-74
2022/06/09 02:31:39;;;;;;;0.10;0.10;;;;;;;16.97;67.23;100981.63;5057599;28;20509;-74
2022/06/09 02:34:05;;;;;;;2.25;2.10;;;;;;;16.94;67.09;100996.94;5056292;28;20041;-74
2022/06/09 02:36:32;;;;;;;0.00;0.00;;;;;;;16.91;67.15;100992.59;5055163;28;20368;-73
2022/06/09 02:38:58;;;;;;;0.10;0.10;;;;;;;16.98;67.31;101001.19;5056028;28;20037;-74
2022/06/09 02:41:24;;;;;;;1.13;0.95;;;;;;;17.01;67.13;101003.75;5040366;28;20043;-73
2022/06/09 02:43:51;;;;;;;0.10;0.10;;;;;;;17.09;67.09;101001.59;5054833;28;20160;-73
2022/06/09 02:46:17;;;;;;;0.03;0.03;;;;;;;17.09;66.92;101001.59;5058103;28;20131;-73
2022/06/09 02:48:43;;;;;;;0.30;0.30;;;;;;;17.08;67.34;101009.69;5061924;28;20051;-73
2022/06/09 02:51:28;;;;;;;0.10;0.10;;;;;;;17.11;67.18;101009.56;5057828;28;20033;-73
2022/06/09 02:53:58;;;;;;;0.10;0.10;;;;;;;17.05;67.32;101010.72;5055659;28;20035;-74
2022/06/09 02:56:24;;;;;;;0.10;0.10;;;;;;;17.12;67.29;101006.81;5061549;28;20032;-73
2022/06/09 02:58:51;;;;;;;0.40;0.40;;;;;;;17.17;67.00;101009.31;5055881;28;20033;-73
2022/06/09 03:01:18;;;;;;;0.57;0.57;;;;;;;17.12;67.02;101011.28;5057972;28;20033;-73
2022/06/09 03:03:44;;;;;;;0.10;0.10;;;;;;;17.17;66.77;101016.44;5044743;28;20079;-73
2022/06/09 03:06:10;;;;;;;0.10;0.10;;;;;;;17.20;66.64;101021.69;5042562;28;20108;-74
2022/06/09 03:08:36;;;;;;;0.25;0.25;;;;;;;17.21;66.72;101016.25;5040293;28;20506;-74
2022/06/09 03:11:03;;;;;;;0.10;0.10;;;;;;;17.18;66.76;101021.72;5042863;28;20025;-74
2022/06/09 03:13:29;;;;;;;0.10;0.10;;;;;;;17.26;66.39;101037.47;5040585;28;20030;-75
2022/06/09 03:15:55;;;;;;;0.13;0.13;;;;;;;17.20;66.29;101038.59;5041223;28;20035;-75
2022/06/09 03:18:21;;;;;;;0.28;0.28;;;;;;;17.24;66.44;101047.38;5041841;28;20033;-74
2022/06/09 03:20:48;;;;;;;0.10;0.10;;;;;;;17.33;66.08;101030.88;5041333;28;20036;-74
2022/06/09 03:23:15;;;;;;;0.10;0.10;;;;;;;17.25;66.17;101047.28;5048517;28;20029;-74
2022/06/09 03:25:43;;;;;;;0.10;0.10;;;;;;;17.28;66.08;101043.59;5050215;28;20028;-74
2022/06/09 03:28:09;;;;;;;0.20;0.20;;;;;;;17.33;66.34;101046.94;5040554;28;20043;-74
2022/06/09 03:30:35;;;;;;;0.10;0.10;;;;;;;17.32;66.28;101047.91;5045889;28;20107;-74
2022/06/09 03:33:02;;;;;;;0.43;0.43;;;;;;;17.39;66.07;101046.66;5049310;28;20025;-74
2022/06/09 03:35:29;;;;;;;0.10;0.10;;;;;;;17.39;66.12;101049.34;5046907;28;20029;-74
2022/06/09 03:37:56;;;;;;;0.10;0.10;;;;;;;17.43;65.65;101048.28;5046475;28;20375;-75
2022/06/09 03:40:24;;;;;;;0.10;0.10;;;;;;;17.45;66.00;101054.41;5046395;28;20026;-74
2022/06/09 03:42:51;;;;;;;0.10;0.10;;;;;;;17.49;65.55;101067.69;5039164;28;20024;-74
2022/06/09 03:45:17;;;;;;;0.05;0.05;;;;;;;17.50;65.55;101064.09;5047246;28;20036;-74
2022/06/09 03:47:44;;;;;;;0.10;0.10;;;;;;;17.41;64.83;101076.94;5049082;28;20074;-74
2022/06/09 03:50:16;;;;;;;0.05;0.05;;;;;;;17.47;65.25;101094.56;5046723;28;20111;-74
2022/06/09 03:52:42;;;;;;;;;;;;;;;17.64;64.00;101085.75;5042622;28;20112;-75
2022/06/09 03:55:08;;;;;;;0.10;0.10;;;;;;;17.47;64.16;101091.88;5046153;28;19916;-74
2022/06/09 03:57:35;;;;;;;0.00;0.00;;;;;;;17.44;64.13;101097.34;5050742;28;20430;-74
2022/06/09 04:00:01;;;;;;;0.10;0.10;;;;;;;17.46;63.88;101098.16;5053786;22;20040;31
2022/06/09 04:02:27;;;;;;;0.10;0.10;;;;;;;17.41;63.62;101102.88;5000296;28;20131;-81
2022/06/09 04:04:53;;;;;;;0.10;0.10;;;;;;;17.49;63.20;101106.06;5006826;28;20081;-79
2022/06/09 04:07:20;;;;;;;0.10;0.10;;;;;;;17.52;63.29;101113.09;5002587;28;20034;-82
2022/06/09 04:09:47;;;;;;;0.10;0.10;;;;;;;17.45;62.96;101116.03;5007153;28;20518;-80
2022/06/09 04:12:13;;;;;;;0.00;0.00;;;;;;;17.46;63.06;101131.16;5005946;28;20035;-81
2022/06/09 04:14:40;;;;;;;0.10;0.10;;;;;;;17.51;63.12;101130.09;4999693;28;20490;-79
2022/06/09 04:17:06;;;;;;;0.00;0.00;;;;;;;17.59;63.13;101133.31;4999275;28;20116;-80
2022/06/09 04:19:32;;;;;;;0.00;0.00;;;;;;;17.57;63.45;101135.16;4997096;28;20054;-80
2022/06/09 04:21:58;;;;;;;0.10;0.10;;;;;;;17.61;63.00;101144.84;4997591;28;20031;-80
2022/06/09 04:24:24;;;;;;;0.10;0.10;;;;;;;17.66;62.82;101142.81;5001097;28;20038;-80
2022/06/09 04:26:50;;;;;;;0.40;0.40;;;;;;;17.67;63.24;101147.25;5000561;28;20092;-82
2022/06/09 04:29:16;;;;;;;0.10;0.10;;;;;;;17.66;62.95;101149.97;4999015;28;20038;-80
2022/06/09 04:31:43;;;;;;;0.00;0.00;;;;;;;17.68;63.02;101146.28;4997857;28;20089;-82
2022/06/09 04:34:09;;;;;;;0.00;0.00;;;;;;;17.70;63.29;101152.44;5003452;28;20034;-80
2022/06/09 04:36:35;;;;;;;0.00;0.00;;;;;;;17.76;63.41;101162.88;4999827;28;20129;-81
2022/06/09 04:39:03;;;;;;;0.00;0.00;;;;;;;17.75;63.26;101166.50;4999958;28;20038;-81
2022/06/09 04:41:30;;;;;;;0.10;0.10;;;;;;;17.75;63.51;101161.16;5001082;28;20157;-82
2022/06/09 04:43:57;;;;;;;0.00;0.00;;;;;;;17.76;63.37;101167.41;5004044;28;20046;-81
2022/06/09 04:46:24;;;;;;;0.20;0.20;;;;;;;17.77;63.62;101170.00;5002147;28;20030;-81
2022/06/09 04:48:50;;;;;;;0.17;0.17;;;;;;;17.85;63.35;101166.09;5003736;28;20037;-82
2022/06/09 04:51:18;;;;;;;0.10;0.10;;;;;;;17.91;63.67;101165.81;5002618;28;20039;-82
2022/06/09 04:53:46;;;;;;;0.10;0.10;;;;;;;17.91;63.51;101172.03;4994312;28;20066;-81
2022/06/09 04:56:14;;;;;;;0.10;0.10;;;;;;;18.02;63.43;101176.97;4991225;28;20545;-80
2022/06/09 04:58:41;;;;;;;0.10;0.10;;;;;;;18.06;63.26;101170.50;4991049;28;20034;-80
2022/06/09 05:01:17;;;;;;;5.57;1.08;;;;;;;18.07;63.10;101182.97;4991371;28;20033;-80
2022/06/09 05:03:44;;;;;;;0.10;0.10;;;;;;;18.10;63.38;101188.19;4994584;28;20304;-80
2022/06/09 05:06:10;;;;;;;0.00;0.00;;;;;;;18.13;63.09;101195.25;4995069;28;20114;-81
2022/06/09 05:08:37;;;;;;;0.10;0.10;;;;;;;18.19;62.99;101196.75;4995823;28;20037;-81
2022/06/09 05:11:03;;;;;;;0.10;0.10;;;;;;;18.27;62.95;101195.44;4995781;28;20629;-80
2022/06/09 05:13:29;;;;;;;0.10;0.10;;;;;;;18.22;63.25;101197.47;4994556;28;20066;-81
2022/06/09 05:15:56;;;;;;;0.10;0.10;;;;;;;18.30;62.54;101207.84;4995243;28;20038;-80
2022/06/09 05:18:26;;;;;;;0.10;0.10;;;;;;;18.14;62.57;101215.72;4996700;28;20042;-79
2022/06/09 05:20:53;;;;;;;0.00;0.00;;;;;;;18.29;62.50;101221.34;4994202;28;20637;-79
2022/06/09 05:23:19;;;;;;;0.10;0.10;;;;;;;18.19;61.88;101228.94;4994558;28;20036;-80
2022/06/09 05:25:46;;;;;;;0.10;0.10;;;;;;;18.23;61.58;101230.53;4994836;28;20061;-81
2022/06/09 05:28:12;;;;;;;0.10;0.10;;;;;;;18.22;61.55;101234.19;4994292;28;20026;-81
2022/06/09 05:30:39;;;;;;;0.00;0.00;;;;;;;18.15;61.64;101236.25;4992584;28;20371;-81
2022/06/09 05:33:05;;;;;;;0.10;0.10;;;;;;;17.96;61.96;101241.56;4994569;28;20026;-80
2022/06/09 05:35:34;;;;;;;0.10;0.10;;;;;;;18.01;62.13;101258.31;4998303;28;20050;-82
2022/06/09 05:46:18;;;;;;;0.03;0.03;;;;;;;17.89;62.96;101283.81;4996703;28;20053;-82
2022/06/09 05:48:46;;;;;;;0.10;0.10;;;;;;;18.00;63.16;101287.91;4995946;28;20113;-82
2022/06/09 05:51:14;;;;;;;36.15;1.25;;;;;;;17.96;63.08;101289.84;4995459;28;20046;-81
2022/06/09 05:53:40;;;;;;;0.10;0.10;;;;;;;17.90;63.71;101285.56;4995192;28;20544;-81
2022/06/09 05:56:08;;;;;;;0.10;0.10;;;;;;;18.05;63.40;101292.09;4995127;28;20036;-81
2022/06/09 05:58:35;;;;;;;0.08;0.08;;;;;;;18.16;62.93;101304.19;4996399;28;20069;-82
2022/06/09 06:01:04;;;;;;;0.08;0.08;;;;;;;18.19;63.28;101298.66;4996215;28;20042;-82
2022/06/09 06:03:31;;;;;;;0.10;0.10;;;;;;;18.10;62.92;101303.50;4995984;28;20125;-83
2022/06/09 06:08:43;;;;;;;0.00;0.00;;;;;;;17.99;63.91;101310.28;4996522;28;20153;-80
2022/06/09 06:11:09;;;;;;;0.10;0.10;;;;;;;17.91;64.52;101319.47;5002813;28;20050;-80
2022/06/09 06:13:36;;;;;;;0.00;0.00;;;;;;;17.86;64.43;101323.31;5001282;28;20042;-81
2022/06/09 06:16:02;;;;;;;0.08;0.08;;;;;;;17.65;65.88;101320.59;5002211;28;20065;-80
2022/06/09 06:18:28;;;;;;;0.10;0.10;;;;;;;17.65;66.17;101328.63;5001149;28;20585;-80
2022/06/09 06:20:55;;;;;;;0.10;0.10;;;;;;;17.64;66.26;101329.56;5003823;28;20103;-82
2022/06/09 06:23:22;;;;;;;0.15;0.15;;;;;;;17.68;66.42;101333.84;5003440;28;20046;-80
2022/06/09 06:25:48;;;;;;;0.30;0.30;;;;;;;17.66;66.69;101338.44;5003453;28;20037;-81
2022/06/09 06:28:15;;;;;;;0.10;0.10;;;;;;;17.66;66.35;101346.47;5003690;28;20030;-81
2022/06/09 06:30:41;;;;;;;0.22;0.22;;;;;;;17.63;66.49;101349.25;5003740;28;20042;-78
2022/06/09 06:33:07;;;;;;;0.10;0.10;;;;;;;17.54;66.89;101349.66;5001867;28;20033;-81
2022/06/09 06:35:33;;;;;;;0.10;0.10;;;;;;;17.50;67.14;101353.41;5004056;28;20038;-80
2022/06/09 06:38:00;;;;;;;0.10;0.10;;;;;;;17.51;66.69;101357.81;5001525;28;20053;-81
2022/06/09 06:40:26;;;;;;;0.00;0.00;;;;;;;17.52;66.39;101357.75;5010249;28;20098;-78
2022/06/09 06:42:53;;;;;;;0.10;0.10;;;;;;;17.51;67.63;101356.00;5010273;28;20022;-78
2022/06/09 06:45:19;;;;;;;0.10;0.10;;;;;;;17.60;66.89;101365.47;5015831;28;20031;-78
2022/06/09 06:47:45;;;;;;;4.18;1.55;;;;;;;17.65;66.72;101366.16;5011021;28;20038;-81
2022/06/09 06:50:13;;;;;;;0.10;0.10;;;;;;;17.70;67.07;101366.81;5010822;28;20057;-81
2022/06/09 06:52:40;;;;;;;0.00;0.00;;;;;;;17.79;66.81;101371.81;5009282;28;20031;-81
2022/06/09 06:55:10;;;;;;;0.00;0.00;;;;;;;17.77;66.89;101372.81;5005511;28;20036;-80
2022/06/09 06:57:36;;;;;;;0.10;0.10;;;;;;;17.90;66.70;101379.38;5003691;28;20131;-81
2022/06/09 07:00:05;;;;;;;0.00;0.00;;;;;;;17.87;66.99;101373.28;5008512;28;20038;-80
2022/06/09 07:02:31;;;;;;;0.10;0.10;;;;;;;17.92;66.53;101382.03;5009253;28;20054;-80
2022/06/09 07:04:57;;;;;;;0.17;0.17;;;;;;;17.93;66.71;101379.28;5003370;28;20034;-80
2022/06/09 07:07:24;;;;;;;0.00;0.00;;;;;;;18.00;66.33;101387.94;5009267;28;20037;-78
2022/06/09 07:09:51;;;;;;;0.13;0.13;;;;;;;18.02;66.36;101391.44;5007886;28;20037;-80
2022/06/09 07:12:18;;;;;;;0.10;0.10;;;;;;;18.08;65.60;101392.97;5007435;28;20041;-79
2022/06/09 07:14:44;;;;;;;1.42;1.33;;;;;;;18.14;66.04;101397.22;5007821;28;20034;-81
2022/06/09 07:17:11;;;;;;;0.10;0.10;;;;;;;18.13;65.78;101400.84;5007992;28;20036;-78
2022/06/09 07:19:37;;;;;;;0.10;0.10;;;;;;;18.16;65.74;101398.03;5008772;28;20049;-79
2022/06/09 07:22:06;;;;;;;0.10;0.10;;;;;;;18.20;65.53;101403.19;5007746;28;20027;-80
2022/06/09 07:24:33;;;;;;;0.10;0.10;;;;;;;18.22;66.21;101403.13;5010221;28;20077;-81
2022/06/09 07:26:59;;;;;;;0.43;0.43;;;;;;;18.28;66.19;101405.56;5011633;28;20050;-79
2022/06/09 07:29:26;;;;;;;0.10;0.10;;;;;;;18.38;66.37;101408.69;5009836;28;20107;-79
2022/06/09 07:31:53;;;;;;;0.10;0.10;;;;;;;18.49;66.23;101416.28;5005432;28;20092;-80
2022/06/09 07:34:20;;;;;;;0.10;0.10;;;;;;;18.54;65.53;101419.63;5009663;28;20657;-78
2022/06/09 07:36:47;;;;;;;0.10;0.10;;;;;;;18.45;65.12;101426.25;5007624;28;20026;-79
2022/06/09 07:39:13;;;;;;;0.10;0.10;;;;;;;18.56;64.94;101425.81;5001508;28;20085;-81
2022/06/09 07:41:39;;;;;;;0.20;0.20;;;;;;;18.63;64.69;101431.75;5004961;28;20030;-81
2022/06/09 07:44:07;;;;;;;0.10;0.10;;;;;;;18.57;63.85;101443.66;5007004;28;20026;-80
2022/06/09 07:46:34;;;;;;;0.10;0.10;;;;;;;18.58;63.64;101440.03;5006633;28;20046;-81
2022/06/09 07:49:01;;;;;;;0.10;0.10;;;;;;;18.64;63.75;101447.81;5007066;28;20098;-81
2022/06/09 07:51:29;;;;;;;0.10;0.10;;;;;;;18.65;63.56;101438.78;5005659;28;20038;-82
2022/06/09 07:53:57;;;;;;;0.00;0.00;;;;;;;18.61;63.29;101450.63;5005532;28;20035;-81
2022/06/09 07:56:23;;;;;;;0.10;0.10;;;;;;;18.59;63.88;101448.00;4999596;28;20089;-79
2022/06/09 07:58:49;;;;;;;0.10;0.10;;;;;;;18.54;63.61;101449.13;5005645;28;20038;-82
2022/06/09 08:01:18;;;;;;;0.00;0.00;;;;;;;18.65;62.83;101444.16;5005394;28;20034;-80
2022/06/09 08:03:44;;;;;;;0.10;0.10;;;;;;;18.79;63.62;101453.41;4997755;28;20034;-82
2022/06/09 08:06:11;;;;;;;0.03;0.03;;;;;;;18.88;63.48;101455.72;5006985;28;20050;-82
2022/06/09 08:08:37;;;;;;;0.10;0.10;;;;;;;19.02;63.49;101455.97;5001988;28;20041;-81
2022/06/09 08:11:05;;;;;;;0.10;0.10;;;;;;;19.01;63.15;101459.59;4998810;28;20061;-82
2022/06/09 08:13:32;;;;;;;0.20;0.20;;;;;;;19.10;63.48;101462.81;4999609;28;20026;-82
2022/06/09 08:15:59;;;;;;;0.10;0.10;;;;;;;19.30;61.58;101460.06;5003821;28;20534;-83
2022/06/09 08:18:25;;;;;;;0.10;0.10;;;;;;;19.48;61.49;101462.84;5000670;28;20050;-83
2022/06/09 08:20:52;;;;;;;0.52;0.52;;;;;;;19.58;60.12;101469.50;5001091;28;20040;-83
2022/06/09 08:23:22;;;;;;;0.10;0.10;;;;;;;19.69;59.88;101469.84;5002963;28;20135;-84
2022/06/09 08:25:50;;;;;;;0.10;0.10;;;;;;;20.00;61.29;101471.06;4993541;28;20481;-81
2022/06/09 08:28:18;;;;;;;0.10;0.10;;;;;;;20.13;59.20;101476.69;5001250;28;20046;-79
2022/06/09 08:30:46;;;;;;;0.10;0.10;;;;;;;20.27;56.85;101476.00;5005966;28;20034;-78
2022/06/09 08:33:12;;;;;;;0.10;0.10;;;;;;;20.16;56.77;101478.38;5003688;28;20026;-80
2022/06/09 08:35:38;;;;;;;0.08;0.08;;;;;;;20.18;57.16;101476.47;5004496;28;20037;-79
2022/06/09 08:38:06;;;;;;;0.10;0.10;;;;;;;20.12;56.03;101487.56;4989333;28;20026;-79
2022/06/09 08:40:56;;;;;;;0.10;0.10;;;;;;;20.23;56.61;101484.31;4994754;28;20121;-79
2022/06/09 08:43:35;;;;;;;0.10;0.10;;;;;;;20.32;55.97;101490.09;4996843;28;20081;-79
2022/06/09 08:46:13;;;;;;;0.20;0.20;;;;;;;20.01;52.48;101494.34;4991226;28;20027;-79
2022/06/09 08:48:44;;;;;;;0.10;0.10;;;;;;;20.05;53.65;101500.44;4991991;28;20089;-83
2022/06/09 08:51:18;;;;;;;0.10;0.10;;;;;;;20.07;52.92;101497.66;4996576;28;20026;-82
2022/06/09 08:53:51;;;;;;;0.10;0.10;;;;;;;19.97;53.56;101505.31;4995203;28;20066;-83
2022/06/09 08:56:22;;;;;;;0.20;0.20;;;;;;;19.99;54.01;101515.06;4998861;28;20490;-82
2022/06/09 08:58:56;;;;;;;0.10;0.10;;;;;;;20.16;54.32;101497.19;4998480;28;20092;-83
2022/06/09 09:06:53;;;;;;;0.38;0.38;;;;;;;20.19;53.43;101514.06;5133468;27;20350;-79
2022/06/09 09:09:26;;;;;;;2.00;0.55;;;;;;;20.20;53.10;101509.56;5129779;27;20036;-78
2022/06/09 09:12:32;;;;;;;0.10;0.10;;;;;;;20.26;52.15;101517.34;5142792;27;20527;-78
2022/06/09 09:15:36;;;;;;;0.05;0.05;;;;;;;20.38;52.73;101529.28;5143182;27;20059;-80
2022/06/09 09:18:28;;;;;;;0.08;0.08;;;;;;;20.44;51.91;101514.66;5148447;27;20049;-77
2022/06/09 09:23:59;;;;;;;0.10;0.10;;;;;;;20.46;50.99;101526.19;4986407;27;4112804;-79
2022/06/09 09:26:44;;;;;;;0.10;0.10;;;;;;;20.44;51.37;101530.81;5101862;28;20667;-80
2022/06/09 09:29:22;;;;;;;0.15;0.15;;;;;;;20.56;51.50;101534.69;5107721;28;20036;-79
2022/06/09 09:31:54;;;;;;;0.10;0.10;;;;;;;20.51;50.68;101534.91;5096639;28;20040;-78
2022/06/09 09:34:24;;;;;;;0.10;0.10;;;;;;;20.67;50.72;101541.28;5100176;28;20035;-78
2022/06/09 09:36:57;;;;;;;0.10;0.10;;;;;;;20.85;51.29;101554.75;5094046;28;20024;-78
2022/06/09 09:39:37;;;;;;;0.20;0.20;;;;;;;20.71;48.81;101568.03;5097534;28;20737;-78
2022/06/09 09:42:16;;;;;;;0.10;0.10;;;;;;;20.96;50.67;101562.25;5099000;28;20047;-78
2022/06/09 09:45:00;;;;;;;1.55;1.10;;;;;;;21.13;50.42;101564.06;5103595;28;20501;-79
2022/06/09 09:47:28;;;;;;;0.05;0.05;;;;;;;21.13;50.18;101556.00;5100274;28;20035;-79
2022/06/09 09:50:16;;;;;;;0.10;0.10;;;;;;;21.29;49.24;101559.59;5108280;28;20027;-79
2022/06/09 09:53:10;;;;;;;0.10;0.10;;;;;;;21.34;50.03;101565.59;5098977;28;20141;-79
2022/06/09 09:55:49;;;;;;;0.10;0.10;;;;;;;21.19;48.78;101568.28;5102799;28;20040;-78
2022/06/09 10:00:58;;;;;;;0.10;0.10;;;;;;;21.23;49.06;101568.00;5134212;22;20455;-77
2022/06/09 10:12:02;;;;;;;2.92;0.93;;;;;;;21.76;47.58;101592.19;5054222;28;20400;-79
2022/06/09 10:17:27;;;;;;;0.10;0.10;;;;;;;21.82;45.30;101597.25;5048445;28;20595;-79
2022/06/09 10:22:38;;;;;;;1.65;1.55;;;;;;;22.24;45.74;101601.19;5112401;27;20383;-78
2022/06/09 10:25:27;;;;;;;0.20;0.20;;;;;;;22.69;46.34;101595.91;5114122;28;20040;-78
2022/06/09 10:28:15;;;;;;;0.10;0.10;;;;;;;22.71;44.80;101606.63;5104722;28;20024;-80
2022/06/09 10:30:51;;;;;;;0.10;0.10;;;;;;;22.67;44.16;101591.53;5120571;27;20034;-79
2022/06/09 10:33:54;;;;;;;0.10;0.10;;;;;;;22.77;44.56;101592.75;5112627;28;20028;-79
2022/06/09 10:36:40;;;;;;;0.25;0.25;;;;;;;22.69;44.65;101600.44;5108115;28;20042;-79
2022/06/09 10:41:59;;;;;;;0.63;0.63;;;;;;;22.52;44.93;101605.00;5109517;27;20400;-80
2022/06/09 10:56:02;;;;;;;0.60;0.60;;;;;;;22.59;43.50;101621.72;5106867;28;20066;-79
2022/06/09 10:58:37;;;;;;;0.20;0.20;;;;;;;22.77;43.88;101627.88;5115737;28;20028;-78
2022/06/09 11:01:04;;;;;;;0.10;0.10;;;;;;;22.77;44.70;101627.88;5114386;28;20027;-78
2022/06/09 11:03:36;;;;;;;0.00;0.00;;;;;;;22.75;43.28;101625.28;5111100;28;20054;-78
2022/06/09 11:06:19;;;;;;;0.10;0.10;;;;;;;23.01;44.39;101621.97;5112154;28;20119;-78
2022/06/09 11:19:48;;;;;;;0.00;0.00;;;;;;;22.97;43.21;101640.19;5070691;28;20364;-81
2022/06/09 11:22:40;;;;;;;0.10;0.10;;;;;;;22.90;42.07;101630.69;5071218;28;20028;-80
2022/06/09 11:31:32;;;;;;;0.05;0.05;;;;;;;23.43;39.50;101633.84;5068299;28;20390;-78
2022/06/09 11:48:23;;;;;;;0.10;0.10;;;;;;;23.87;40.48;101642.84;5130047;27;20189;-80
2022/06/09 11:50:50;;;;;;;0.10;0.10;;;;;;;23.88;40.69;101655.41;5110232;28;20036;-80
2022/06/09 11:53:23;;;;;;;0.10;0.10;;;;;;;24.06;40.40;101656.97;5111139;28;20034;-80
2022/06/09 11:55:57;;;;;;;0.10;0.10;;;;;;;24.09;40.38;101657.72;5110799;28;20020;-80
2022/06/09 12:06:59;;;;;;;0.77;0.43;;;;;;;24.15;38.57;101663.63;5108872;27;1178865;-78
2022/06/09 12:09:52;;;;;;;0.10;0.10;;;;;;;24.22;37.99;101648.72;5126720;27;20034;-79
2022/06/09 12:15:19;;;;;;;0.30;0.30;;;;;;;24.11;39.73;101662.06;5077424;27;20171;-80
2022/06/09 12:24:20;;;;;;;0.10;0.10;;;;;;;24.37;39.32;101671.22;5150270;27;20393;-79
2022/06/09 12:26:55;;;;;;;0.98;0.38;;;;;;;24.39;39.56;101660.28;5150856;27;20031;-79
2022/06/09 12:34:58;;;;;;;0.10;0.10;;;;;;;24.45;39.10;101670.72;5110349;27;20133;-77
2022/06/09 12:37:31;;;;;;;0.10;0.10;;;;;;;24.32;39.09;101676.06;5110728;28;20019;-77
2022/06/09 12:42:51;;;;;;;0.10;0.10;;;;;;;24.57;37.63;101677.16;5088179;27;20388;-78
2022/06/09 12:45:29;;;;;;;0.90;0.68;;;;;;;24.56;37.84;101694.38;5085543;28;20032;-78
2022/06/09 12:50:44;;;;;;;0.10;0.10;;;;;;;24.73;38.80;101685.16;5164056;27;20378;-76
2022/06/09 12:53:23;;;;;;;0.10;0.10;;;;;;;24.96;38.14;101691.75;5135209;27;20027;-76
2022/06/09 12:55:56;;;;;;;0.10;0.10;;;;;;;24.70;37.12;101691.66;5136259;27;20046;-79
2022/06/09 13:01:19;;;;;;;0.22;0.22;;;;;;;24.82;36.81;101702.66;5109620;27;20362;-76
2022/06/09 13:03:50;;;;;;;0.13;0.13;;;;;;;24.64;37.59;101719.13;5112579;28;20491;-79
2022/06/09 13:06:30;;;;;;;0.10;0.10;;;;;;;24.47;37.03;101701.25;5119587;28;20073;-78
2022/06/09 13:09:02;;;;;;;0.10;0.10;;;;;;;24.45;36.97;101715.88;5118254;28;20019;-79
2022/06/09 13:14:26;;;;;;;0.20;0.20;;;;;;;24.82;37.01;101717.09;5101909;28;20503;-78
2022/06/09 13:16:57;;;;;;;0.22;0.22;;;;;;;24.88;36.84;101723.94;5110940;28;20032;-78
2022/06/09 13:19:28;;;;;;;0.10;0.10;;;;;;;25.16;36.97;101727.47;5100042;28;20020;-77
2022/06/09 13:21:56;;;;;;;0.10;0.10;;;;;;;25.10;36.63;101728.78;5097405;28;20047;-77
2022/06/09 13:24:40;;;;;;;0.10;0.10;;;;;;;25.30;36.27;101735.56;5095168;28;20470;-78
2022/06/09 13:27:19;;;;;;;0.25;0.25;;;;;;;25.22;36.06;101729.78;5106409;28;20107;-77
2022/06/09 13:29:56;;;;;;;0.10;0.10;;;;;;;25.23;36.07;101731.50;5104575;28;20032;-79
2022/06/09 13:35:00;;;;;;;0.28;0.28;;;;;;;25.19;35.30;101740.84;5046053;28;20056;-77
2022/06/09 13:37:43;;;;;;;0.38;0.35;;;;;;;25.54;35.79;101731.28;5037982;28;20029;-77
2022/06/09 13:42:58;;;;;;;0.10;0.10;;;;;;;25.97;34.83;101741.81;5052828;28;20889;-77
2022/06/09 13:45:28;;;;;;;1.25;1.17;;;;;;;26.20;34.49;101747.50;5039708;28;20034;-77
2022/06/09 13:48:17;;;;;;;0.10;0.10;;;;;;;26.45;33.70;101749.28;5037527;28;20025;-77
2022/06/09 13:53:50;;;;;;;0.10;0.10;;;;;;;26.41;33.57;101751.34;5109929;27;20331;-76
2022/06/09 13:56:19;;;;;;;0.10;0.10;;;;;;;26.35;32.53;101753.66;5105029;28;20567;-77
2022/06/09 13:58:45;;;;;;;0.13;0.13;;;;;;;26.38;32.73;101762.47;5111114;28;20031;-77
2022/06/09 14:01:12;;;;;;;0.10;0.10;;;;;;;26.24;31.54;101759.88;5110612;28;20336;-77
2022/06/09 14:03:46;;;;;;;0.32;0.32;;;;;;;26.41;31.75;101767.66;5109165;28;20071;-77
2022/06/09 14:06:16;;;;;;;0.10;0.10;;;;;;;26.44;31.27;101766.56;5110004;28;20028;-77